Time;durP1;ratioP1;P1;durP2;ratioP2;P2;SDS_P1;SDS_P2;PMS_P1;PMS_P2;Temp;Humidity;BMP_temperature;BMP_pressure;BME280_temperature;BME280_humidity;BME280_pressure;Samples;Min_cycle;Max_cycle;Signal;HPM_P1;HPM_P2
2022/04/15 05:21:38;;;;;;;30.90;11.63;;;;;;;;;;6081916;22;1332766;-63
2022/04/15 05:24:05;;;;;;;27.42;10.70;;;;;;;;;;6132027;23;20018;-63
2022/04/15 05:26:33;;;;;;;24.90;10.75;;;;;;;;;;6131901;23;20077;-66
2022/04/15 05:29:00;;;;;;;32.08;11.93;;;;;;;;;;6131768;23;19998;-65
2022/04/15 05:31:26;;;;;;;23.27;11.48;;;;;;;;;;6132274;23;20056;-66
2022/04/15 05:33:52;;;;;;;31.00;11.82;;;;;;;;;;6132281;23;20064;-66
2022/04/15 05:36:18;;;;;;;24.75;11.20;;;;;;;;;;6131944;23;20069;-67
2022/04/15 05:38:44;;;;;;;24.05;11.00;;;;;;;;;;6131521;23;20013;-69
2022/04/15 05:41:10;;;;;;;29.33;12.32;;;;;;;;;;6132145;23;20009;-66
2022/04/15 05:43:37;;;;;;;19.42;9.88;;;;;;;;;;6132024;23;20002;-65
2022/04/15 05:46:03;;;;;;;19.45;9.77;;;;;;;;;;6131956;23;20010;-66
2022/04/15 05:48:29;;;;;;;21.67;10.65;;;;;;;;;;6131599;23;20013;-67
2022/04/15 05:50:55;;;;;;;24.38;10.07;;;;;;;;;;6132117;23;20010;-70
2022/04/15 05:53:21;;;;;;;22.80;9.88;;;;;;;;;;6132116;23;20010;-64
2022/04/15 05:55:47;;;;;;;19.80;8.52;;;;;;;;;;6131461;23;20002;-65
2022/04/15 05:58:13;;;;;;;22.23;9.63;;;;;;;;;;6131217;23;20010;-66
2022/04/15 06:00:40;;;;;;;21.88;10.20;;;;;;;;;;6131491;23;20002;-69
2022/04/15 06:03:09;;;;;;;20.35;10.32;;;;;;;;;;6131289;23;20439;-68
2022/04/15 06:05:35;;;;;;;20.52;9.25;;;;;;;;;;6131165;23;20057;-66
2022/04/15 06:08:01;;;;;;;15.85;8.82;;;;;;;;;;6130332;23;20005;-65
2022/04/15 06:10:28;;;;;;;16.80;8.57;;;;;;;;;;6131461;23;20009;-69
2022/04/15 06:13:09;;;;;;;17.58;9.20;;;;;;;;;;6131263;23;20014;-68
2022/04/15 06:15:41;;;;;;;31.90;12.52;;;;;;;;;;6129757;23;20010;-69
2022/04/15 06:18:07;;;;;;;30.02;13.68;;;;;;;;;;6124958;23;20014;-68
2022/04/15 06:20:34;;;;;;;27.52;14.40;;;;;;;;;;6124999;23;20009;-68
2022/04/15 06:23:00;;;;;;;26.02;12.65;;;;;;;;;;6151256;23;20083;-68
2022/04/15 06:25:26;;;;;;;23.13;12.85;;;;;;;;;;6154294;23;20047;-68
2022/04/15 06:27:54;;;;;;;25.55;12.57;;;;;;;;;;6153970;23;20001;-65
2022/04/15 06:30:21;;;;;;;33.90;11.68;;;;;;;;;;6153951;23;20088;-65
2022/04/15 06:32:48;;;;;;;20.83;10.82;;;;;;;;;;6154137;23;20001;-58
2022/04/15 06:35:14;;;;;;;27.23;10.63;;;;;;;;;;6154016;23;20005;-58
2022/04/15 06:37:40;;;;;;;21.10;10.75;;;;;;;;;;6154438;23;19998;-61
2022/04/15 06:40:06;;;;;;;21.27;10.07;;;;;;;;;;6154520;23;20005;-59
2022/04/15 06:42:34;;;;;;;22.55;9.85;;;;;;;;;;6154120;23;20001;-60
2022/04/15 06:45:01;;;;;;;25.25;10.15;;;;;;;;;;6152836;23;20092;-64
2022/04/15 06:47:27;;;;;;;21.83;10.38;;;;;;;;;;6152314;23;20000;-60
2022/04/15 06:49:53;;;;;;;20.35;11.25;;;;;;;;;;6152769;23;20013;-56
2022/04/15 06:52:19;;;;;;;21.13;10.85;;;;;;;;;;6153054;23;20020;-58
2022/04/15 06:54:45;;;;;;;28.38;11.68;;;;;;;;;;6153286;23;20008;-58
2022/04/15 06:57:11;;;;;;;29.05;11.90;;;;;;;;;;6154212;23;20012;-63
2022/04/15 06:59:37;;;;;;;21.38;10.48;;;;;;;;;;6153930;23;20081;-57
2022/04/15 07:02:04;;;;;;;20.17;10.20;;;;;;;;;;6153619;23;20005;-56
2022/04/15 07:04:31;;;;;;;20.90;10.32;;;;;;;;;;6153923;23;20010;-57
2022/04/15 07:06:57;;;;;;;20.23;10.55;;;;;;;;;;6153867;23;20081;-62
2022/04/15 07:09:23;;;;;;;21.90;10.55;;;;;;;;;;6153838;23;20138;-57
2022/04/15 07:11:49;;;;;;;22.40;10.20;;;;;;;;;;6153987;23;20002;-64
2022/04/15 07:14:16;;;;;;;21.85;10.38;;;;;;;;;;6153809;23;20006;-57
2022/04/15 07:16:42;;;;;;;19.60;11.40;;;;;;;;;;6154076;23;20008;-60
2022/04/15 07:19:08;;;;;;;22.02;10.75;;;;;;;;;;6153446;23;20377;-67
2022/04/15 07:21:34;;;;;;;23.38;11.15;;;;;;;;;;6153345;23;20088;-60
2022/04/15 07:24:01;;;;;;;21.80;10.32;;;;;;;;;;6153694;23;20064;-67
2022/04/15 07:26:27;;;;;;;20.38;10.40;;;;;;;;;;6154259;23;20430;-67
2022/04/15 07:28:53;;;;;;;19.73;10.55;;;;;;;;;;6153650;23;20613;-57
2022/04/15 07:31:19;;;;;;;19.80;11.00;;;;;;;;;;6153516;23;20036;-68
2022/04/15 07:33:48;;;;;;;22.25;10.90;;;;;;;;;;6126031;23;20013;-57
2022/04/15 07:38:59;;;;;;;28.88;9.98;;;;;;;;;;6153417;23;20101;-56
2022/04/15 07:41:25;;;;;;;19.50;9.43;;;;;;;;;;6153704;23;20009;-63
2022/04/15 07:43:51;;;;;;;18.02;8.90;;;;;;;;;;6153194;23;20005;-57
2022/04/15 07:46:17;;;;;;;17.75;8.93;;;;;;;;;;6153466;23;20021;-65
2022/04/15 07:48:43;;;;;;;20.08;8.05;;;;;;;;;;6127099;23;20089;-57
2022/04/15 07:51:09;;;;;;;17.23;8.00;;;;;;;;;;6153472;23;20017;-56
2022/04/15 07:53:35;;;;;;;22.40;8.23;;;;;;;;;;6153868;23;20080;-59
2022/04/15 07:56:01;;;;;;;16.27;8.60;;;;;;;;;;6153640;23;20005;-62
2022/04/15 07:58:28;;;;;;;21.17;9.18;;;;;;;;;;6153078;23;20010;-65
2022/04/15 08:00:54;;;;;;;20.73;9.30;;;;;;;;;;6153881;23;20013;-63
2022/04/15 08:03:21;;;;;;;18.10;9.45;;;;;;;;;;6153693;23;20327;-56
2022/04/15 08:05:48;;;;;;;20.08;9.00;;;;;;;;;;6153079;23;20014;-57
2022/04/15 08:08:14;;;;;;;17.27;8.60;;;;;;;;;;6153518;23;20091;-56
2022/04/15 08:10:40;;;;;;;18.13;8.50;;;;;;;;;;6153071;23;20011;-68
2022/04/15 08:13:07;;;;;;;17.27;8.95;;;;;;;;;;6152881;23;20012;-63
2022/04/15 08:15:33;;;;;;;16.48;8.85;;;;;;;;;;6153263;23;20001;-60
2022/04/15 08:17:59;;;;;;;16.63;7.35;;;;;;;;;;6153191;23;20330;-66
2022/04/15 08:20:26;;;;;;;19.15;7.50;;;;;;;;;;6152923;23;20005;-60
2022/04/15 08:22:52;;;;;;;15.55;7.72;;;;;;;;;;6152675;23;20022;-57
2022/04/15 08:25:18;;;;;;;17.80;7.30;;;;;;;;;;6152902;23;20021;-57
2022/04/15 08:27:44;;;;;;;17.13;7.63;;;;;;;;;;6127056;23;20662;-67
2022/04/15 08:30:10;;;;;;;18.45;7.53;;;;;;;;;;6152649;23;20080;-65
2022/04/15 08:32:36;;;;;;;16.85;8.68;;;;;;;;;;6152530;23;20005;-58
2022/04/15 08:35:02;;;;;;;19.40;8.63;;;;;;;;;;6152830;23;20056;-57
2022/04/15 08:37:29;;;;;;;13.90;7.95;;;;;;;;;;6153105;23;20419;-57
2022/04/15 08:39:55;;;;;;;17.85;8.68;;;;;;;;;;6153283;23;20041;-65
2022/04/15 08:42:21;;;;;;;21.45;8.02;;;;;;;;;;6153080;23;20006;-67
2022/04/15 08:44:50;;;;;;;22.60;9.80;;;;;;;;;;6152811;23;20044;-57
2022/04/15 08:47:16;;;;;;;17.35;8.88;;;;;;;;;;6152989;23;20010;-57
2022/04/15 08:49:42;;;;;;;21.08;9.30;;;;;;;;;;6152629;23;20009;-57
2022/04/15 08:52:09;;;;;;;23.80;11.68;;;;;;;;;;6153205;23;20422;-57
2022/04/15 08:54:35;;;;;;;24.58;10.65;;;;;;;;;;6152866;23;20005;-57
2022/04/15 08:57:01;;;;;;;20.63;10.85;;;;;;;;;;6153063;23;20080;-57
2022/04/15 08:59:27;;;;;;;24.65;11.70;;;;;;;;;;6152655;23;20076;-59
2022/04/15 09:01:53;;;;;;;20.88;10.27;;;;;;;;;;6152925;23;20029;-59
2022/04/15 09:04:20;;;;;;;22.40;10.48;;;;;;;;;;6127035;23;20017;-57
2022/04/15 09:06:46;;;;;;;21.85;12.02;;;;;;;;;;6152975;23;20089;-58
2022/04/15 09:09:13;;;;;;;23.23;10.77;;;;;;;;;;6153092;23;19998;-58
2022/04/15 09:11:40;;;;;;;18.42;10.13;;;;;;;;;;6152925;23;20013;-59
2022/04/15 09:14:10;;;;;;;18.30;8.70;;;;;;;;;;6152893;23;20002;-57
2022/04/15 09:16:42;;;;;;;20.92;9.98;;;;;;;;;;6152457;23;20076;-59
2022/04/15 09:19:09;;;;;;;23.20;10.60;;;;;;;;;;6152445;23;20330;-58
2022/04/15 09:21:35;;;;;;;17.08;8.95;;;;;;;;;;6152195;23;20087;-65
2022/04/15 09:24:01;;;;;;;19.17;8.07;;;;;;;;;;6152177;23;20021;-57
2022/04/15 09:26:28;;;;;;;17.48;8.45;;;;;;;;;;6152974;23;20001;-57
2022/04/15 09:28:54;;;;;;;17.73;8.25;;;;;;;;;;6152947;23;20069;-57
2022/04/15 09:31:21;;;;;;;15.90;7.63;;;;;;;;;;6152767;23;20008;-57
2022/04/15 09:33:53;;;;;;;15.07;7.38;;;;;;;;;;6152689;23;20011;-63
2022/04/15 09:36:23;;;;;;;16.23;6.88;;;;;;;;;;6152751;23;20081;-57
2022/04/15 09:38:50;;;;;;;15.23;6.70;;;;;;;;;;6152773;23;20001;-58
2022/04/15 09:41:23;;;;;;;15.00;6.93;;;;;;;;;;6152359;23;19998;-57
2022/04/15 09:43:53;;;;;;;13.93;7.32;;;;;;;;;;6152620;23;20009;-57
2022/04/15 09:46:19;;;;;;;10.85;6.82;;;;;;;;;;6152866;23;20084;-65
2022/04/15 09:49:04;;;;;;;14.05;6.38;;;;;;;;;;6152232;23;20001;-57
2022/04/15 09:51:37;;;;;;;14.63;6.80;;;;;;;;;;6154010;23;20426;-61
2022/04/15 09:54:04;;;;;;;12.05;6.30;;;;;;;;;;6154555;23;20303;-57
2022/04/15 09:56:34;;;;;;;15.10;6.57;;;;;;;;;;6154247;23;20378;-58
2022/04/15 09:59:04;;;;;;;11.70;6.40;;;;;;;;;;6154388;23;20081;-57
2022/04/15 10:01:30;;;;;;;15.00;7.38;;;;;;;;;;6153862;23;20255;-58
2022/04/15 10:03:57;;;;;;;19.88;8.45;;;;;;;;;;6153281;23;20473;-57
2022/04/15 10:06:23;;;;;;;16.23;7.55;;;;;;;;;;6154098;23;20375;-57
2022/04/15 10:08:49;;;;;;;18.15;6.15;;;;;;;;;;6154034;23;20092;-57
2022/04/15 10:11:15;;;;;;;16.80;6.47;;;;;;;;;;6152948;23;20068;-57
2022/04/15 10:13:45;;;;;;;13.43;5.97;;;;;;;;;;6154119;23;20323;-58
2022/04/15 10:16:11;;;;;;;11.30;5.57;;;;;;;;;;6154192;23;20006;-58
2022/04/15 10:18:37;;;;;;;10.35;5.55;;;;;;;;;;6153919;23;20001;-61
2022/04/15 10:21:04;;;;;;;13.23;5.45;;;;;;;;;;6153393;23;20100;-58
2022/04/15 10:23:30;;;;;;;10.32;5.57;;;;;;;;;;6154772;23;20008;-64
2022/04/15 10:26:00;;;;;;;14.48;5.03;;;;;;;;;;6154664;23;20018;-60
2022/04/15 10:28:44;;;;;;;14.38;5.00;;;;;;;;;;6153871;23;20012;-62
2022/04/15 10:31:14;;;;;;;8.10;3.95;;;;;;;;;;6154198;23;20010;-57
2022/04/15 10:33:40;;;;;;;8.35;4.10;;;;;;;;;;6153888;23;20002;-58
2022/04/15 10:36:12;;;;;;;12.00;4.05;;;;;;;;;;6154009;23;20002;-57
2022/04/15 10:38:59;;;;;;;9.77;4.32;;;;;;;;;;6153907;23;20005;-59
2022/04/15 10:41:25;;;;;;;12.52;4.28;;;;;;;;;;6128735;23;20013;-57
2022/04/15 10:44:01;;;;;;;11.30;4.65;;;;;;;;;;6154320;23;20033;-60
2022/04/15 10:46:30;;;;;;;10.30;4.70;;;;;;;;;;6153974;23;20086;-62
2022/04/15 10:49:00;;;;;;;11.60;5.07;;;;;;;;;;6154444;23;20390;-57
2022/04/15 10:51:27;;;;;;;10.75;4.60;;;;;;;;;;6153765;23;20489;-57
2022/04/15 10:53:53;;;;;;;11.02;5.03;;;;;;;;;;6154507;23;20001;-63
2022/04/15 10:56:21;;;;;;;9.48;4.45;;;;;;;;;;6153914;23;20001;-64
2022/04/15 11:01:33;;;;;;;11.02;4.72;;;;;;;;;;6154643;23;20080;-58
2022/04/15 11:04:04;;;;;;;9.65;4.47;;;;;;;;;;6154471;23;20001;-58
2022/04/15 11:06:30;;;;;;;10.90;4.70;;;;;;;;;;6153916;23;20632;-64
2022/04/15 11:08:56;;;;;;;12.32;4.95;;;;;;;;;;6154153;23;19998;-58
2022/04/15 11:11:48;;;;;;;14.15;4.90;;;;;;;;;;6154176;23;20001;-57
2022/04/15 11:14:16;;;;;;;14.43;5.60;;;;;;;;;;6145618;23;20101;-60
2022/04/15 11:16:50;;;;;;;12.88;6.50;;;;;;;;;;6151684;23;20002;-58
2022/04/15 11:19:22;;;;;;;16.20;4.60;;;;;;;;;;6152646;23;20001;-57
2022/04/15 11:21:53;;;;;;;16.10;5.15;;;;;;;;;;6149932;23;20018;-58
2022/04/15 11:24:23;;;;;;;14.43;4.85;;;;;;;;;;6149782;23;20013;-60
2022/04/15 11:26:50;;;;;;;15.20;4.45;;;;;;;;;;6146203;23;20338;-59
2022/04/15 11:29:16;;;;;;;10.25;4.50;;;;;;;;;;6153696;23;19998;-59
2022/04/15 11:31:45;;;;;;;13.15;4.65;;;;;;;;;;6153281;23;20002;-59
2022/04/15 11:34:16;;;;;;;11.93;4.70;;;;;;;;;;6153136;23;20362;-59
2022/04/15 11:36:48;;;;;;;9.57;3.97;;;;;;;;;;6150931;23;20009;-58
2022/04/15 11:39:15;;;;;;;11.07;4.22;;;;;;;;;;6152323;23;20005;-59
2022/04/15 11:41:46;;;;;;;8.25;3.72;;;;;;;;;;6152051;23;20320;-59
2022/04/15 11:44:12;;;;;;;11.15;4.55;;;;;;;;;;6151741;23;20010;-59
2022/04/15 11:46:38;;;;;;;10.63;3.17;;;;;;;;;;6152262;23;20012;-58
2022/04/15 11:49:11;;;;;;;7.28;3.83;;;;;;;;;;6152277;23;20325;-58
2022/04/15 11:51:37;;;;;;;10.75;4.93;;;;;;;;;;6152211;23;20438;-58
2022/04/15 11:54:03;;;;;;;6.97;3.67;;;;;;;;;;6152062;23;19997;-58
2022/04/15 11:56:29;;;;;;;8.75;3.50;;;;;;;;;;6152389;23;20009;-59
2022/04/15 11:58:57;;;;;;;6.72;3.78;;;;;;;;;;6153036;23;20085;-58
2022/04/15 12:01:27;;;;;;;7.25;3.35;;;;;;;;;;6153185;23;20009;-59
2022/04/15 12:03:53;;;;;;;7.47;2.78;;;;;;;;;;6152633;23;20025;-60
2022/04/15 12:06:19;;;;;;;6.93;3.13;;;;;;;;;;6152899;23;20073;-58
2022/04/15 12:08:46;;;;;;;4.95;2.60;;;;;;;;;;6153034;23;20025;-58
2022/04/15 12:11:13;;;;;;;8.43;2.50;;;;;;;;;;6152727;23;20033;-58
2022/04/15 12:13:39;;;;;;;8.20;2.67;;;;;;;;;;6152518;23;20025;-59
2022/04/15 12:16:05;;;;;;;4.70;2.55;;;;;;;;;;6152783;23;20001;-58
2022/04/15 12:18:31;;;;;;;7.93;2.85;;;;;;;;;;6152597;23;20006;-58
2022/04/15 12:20:57;;;;;;;7.88;2.90;;;;;;;;;;6152671;23;20006;-59
2022/04/15 12:23:25;;;;;;;4.50;2.17;;;;;;;;;;6152904;23;20009;-58
2022/04/15 12:26:08;;;;;;;6.93;2.58;;;;;;;;;;6152794;23;20045;-58
2022/04/15 12:31:29;;;;;;;9.40;2.55;;;;;;;;;;6152545;23;20036;-59
2022/04/15 12:33:55;;;;;;;10.57;3.58;;;;;;;;;;6152792;23;20013;-59
2022/04/15 12:36:21;;;;;;;7.10;3.13;;;;;;;;;;6153637;23;20489;-59
2022/04/15 12:38:58;;;;;;;10.98;3.22;;;;;;;;;;6154077;23;20318;-58
2022/04/15 12:41:24;;;;;;;8.73;3.58;;;;;;;;;;6125123;23;20365;-59
2022/04/15 12:43:50;;;;;;;6.22;3.15;;;;;;;;;;6152228;23;20342;-59
2022/04/15 12:46:16;;;;;;;5.65;3.30;;;;;;;;;;6152563;23;20072;-59
2022/04/15 12:48:49;;;;;;;9.55;3.13;;;;;;;;;;6152237;23;20005;-59
2022/04/15 12:51:17;;;;;;;5.97;2.75;;;;;;;;;;6152905;23;20436;-60
2022/04/15 12:53:44;;;;;;;9.10;2.90;;;;;;;;;;6152234;23;20060;-59
2022/04/15 12:56:13;;;;;;;8.73;3.03;;;;;;;;;;6152182;23;20001;-61
2022/04/15 12:58:51;;;;;;;12.63;3.13;;;;;;;;;;6152044;23;20411;-61
2022/04/15 13:01:17;;;;;;;13.40;3.42;;;;;;;;;;6152129;23;20628;-61
2022/04/15 13:03:50;;;;;;;16.35;4.20;;;;;;;;;;6152342;23;20032;-62
2022/04/15 13:06:16;;;;;;;14.18;4.13;;;;;;;;;;6152266;23;20049;-62
2022/04/15 13:08:42;;;;;;;11.63;3.63;;;;;;;;;;6152234;23;20001;-61
2022/04/15 13:11:09;;;;;;;12.18;4.45;;;;;;;;;;6152203;23;20493;-60
2022/04/15 13:13:35;;;;;;;41.22;22.02;;;;;;;;;;6152611;23;20350;-59
2022/04/15 13:16:01;;;;;;;31.35;16.85;;;;;;;;;;6152414;23;20493;-59
2022/04/15 13:18:27;;;;;;;30.13;11.73;;;;;;;;;;6151339;23;20028;-59
2022/04/15 13:20:53;;;;;;;21.05;10.13;;;;;;;;;;6152465;23;20036;-58
2022/04/15 13:23:19;;;;;;;57.20;19.65;;;;;;;;;;6151854;23;20020;-58
2022/04/15 13:25:46;;;;;;;32.90;14.18;;;;;;;;;;6152362;23;20497;-59
2022/04/15 13:28:12;;;;;;;60.20;22.77;;;;;;;;;;6153619;23;20484;-59
2022/04/15 13:30:40;;;;;;;12.52;4.60;;;;;;;;;;6152947;23;20005;-59
2022/04/15 13:33:06;;;;;;;49.03;16.42;;;;;;;;;;6153789;23;20441;-59
2022/04/15 13:35:33;;;;;;;19.75;7.22;;;;;;;;;;6154761;23;20012;-59
2022/04/15 13:37:59;;;;;;;25.67;9.27;;;;;;;;;;6154612;23;20032;-60
2022/04/15 13:40:25;;;;;;;18.50;6.07;;;;;;;;;;6154576;23;20021;-59
2022/04/15 13:42:51;;;;;;;14.27;4.57;;;;;;;;;;6154136;23;20433;-59
2022/04/15 13:45:18;;;;;;;8.25;3.60;;;;;;;;;;6153347;23;20035;-59
2022/04/15 13:47:44;;;;;;;8.05;4.13;;;;;;;;;;6153593;23;20147;-59
2022/04/15 13:50:11;;;;;;;10.30;4.25;;;;;;;;;;6146387;23;20010;-59
2022/04/15 13:58:07;;;;;;;12.55;4.60;;;;;;;;;;6154955;23;20032;-62
2022/04/15 14:00:33;;;;;;;7.35;3.92;;;;;;;;;;6152881;23;20056;-59
2022/04/15 14:02:59;;;;;;;8.82;4.20;;;;;;;;;;6153842;23;20025;-60
2022/04/15 14:05:25;;;;;;;11.40;4.57;;;;;;;;;;6152697;23;20021;-58
2022/04/15 14:07:51;;;;;;;9.50;4.20;;;;;;;;;;6153408;23;20016;-58
2022/04/15 14:10:17;;;;;;;9.60;4.32;;;;;;;;;;6155350;23;20009;-63
2022/04/15 14:12:44;;;;;;;8.77;4.40;;;;;;;;;;6154580;23;20068;-61
2022/04/15 14:15:11;;;;;;;9.15;4.32;;;;;;;;;;6128237;23;20017;-63
2022/04/15 14:17:37;;;;;;;10.27;4.25;;;;;;;;;;6127000;23;20001;-62
2022/04/15 14:20:06;;;;;;;7.80;4.20;;;;;;;;;;6154285;23;20001;-64
2022/04/15 14:22:34;;;;;;;13.43;4.70;;;;;;;;;;6154860;23;20021;-62
2022/04/15 14:25:00;;;;;;;8.15;4.18;;;;;;;;;;6154531;23;20096;-58
2022/04/15 14:27:26;;;;;;;8.52;4.05;;;;;;;;;;6153568;23;20001;-62
2022/04/15 14:29:54;;;;;;;7.95;4.10;;;;;;;;;;6103674;23;20064;-59
2022/04/15 14:32:20;;;;;;;12.77;4.50;;;;;;;;;;6153963;23;20006;-63
2022/04/15 14:34:48;;;;;;;7.68;4.35;;;;;;;;;;6153505;23;19997;-61
2022/04/15 14:37:14;;;;;;;7.32;4.07;;;;;;;;;;6153657;23;20020;-62
2022/04/15 14:39:40;;;;;;;8.93;3.70;;;;;;;;;;6153883;23;20052;-59
2022/04/15 14:42:07;;;;;;;7.65;4.07;;;;;;;;;;6154242;23;20439;-57
2022/04/15 14:44:33;;;;;;;10.38;4.40;;;;;;;;;;6154316;23;20017;-58
2022/04/15 14:46:59;;;;;;;12.30;4.15;;;;;;;;;;6154140;23;20009;-59
2022/04/15 14:49:25;;;;;;;7.82;3.70;;;;;;;;;;6153614;23;20010;-59
2022/04/15 14:51:51;;;;;;;14.63;4.07;;;;;;;;;;6154502;23;20088;-59
2022/04/15 14:54:17;;;;;;;10.55;3.88;;;;;;;;;;6153943;23;20531;-61
2022/04/15 14:56:44;;;;;;;5.60;3.30;;;;;;;;;;6128451;23;20009;-62
2022/04/15 14:59:10;;;;;;;13.38;4.15;;;;;;;;;;6126812;23;19998;-58
2022/04/15 15:01:36;;;;;;;8.02;3.72;;;;;;;;;;6152974;23;20016;-59
2022/04/15 15:04:03;;;;;;;11.63;3.88;;;;;;;;;;6153138;23;20076;-58
2022/04/15 15:06:29;;;;;;;12.82;3.83;;;;;;;;;;6153494;23;20025;-58
2022/04/15 15:08:55;;;;;;;8.52;3.30;;;;;;;;;;6153190;23;20021;-60
2022/04/15 15:11:23;;;;;;;6.97;3.00;;;;;;;;;;6153446;23;20040;-58
2022/04/15 15:13:50;;;;;;;7.15;2.80;;;;;;;;;;6153658;23;20006;-63
2022/04/15 15:16:17;;;;;;;10.45;3.40;;;;;;;;;;6150852;23;20005;-62
2022/04/15 15:18:43;;;;;;;6.57;3.50;;;;;;;;;;6152543;23;20001;-60
2022/04/15 15:21:09;;;;;;;6.53;3.10;;;;;;;;;;6152920;23;20015;-62
2022/04/15 15:29:48;;;;;;;7.40;3.97;;;;;;;;;;6152580;23;20005;-60
2022/04/15 15:31:50;;;;;;;9.95;7.00;;;;;;;;;;6153037;23;20099;-61
2022/04/15 15:34:16;;;;;;;7.00;2.88;;;;;;;;;;6152830;23;20001;-62
2022/04/15 15:36:42;;;;;;;7.72;3.03;;;;;;;;;;6152536;23;20009;-58
2022/04/15 15:39:09;;;;;;;10.60;3.38;;;;;;;;;;6152377;23;20425;-61
2022/04/15 15:41:35;;;;;;;5.72;3.00;;;;;;;;;;6153674;23;20013;-58
2022/04/15 15:44:01;;;;;;;9.13;3.42;;;;;;;;;;6152855;23;20009;-62
2022/04/15 15:46:27;;;;;;;5.47;2.80;;;;;;;;;;6153127;23;20087;-62
2022/04/15 15:48:53;;;;;;;8.40;3.47;;;;;;;;;;6152293;23;19998;-62
2022/04/15 15:51:19;;;;;;;7.32;2.97;;;;;;;;;;6152751;23;20024;-58
2022/04/15 15:53:45;;;;;;;7.30;3.00;;;;;;;;;;6153006;23;20013;-58
2022/04/15 15:56:11;;;;;;;6.68;2.97;;;;;;;;;;6153009;23;20009;-63
2022/04/15 15:58:37;;;;;;;7.10;3.20;;;;;;;;;;6152945;23;20032;-58
2022/04/15 16:01:03;;;;;;;5.05;2.78;;;;;;;;;;6152973;23;19998;-58
2022/04/15 16:03:29;;;;;;;8.65;3.60;;;;;;;;;;6153219;23;20430;-63
2022/04/15 16:05:55;;;;;;;11.18;6.53;;;;;;;;;;6128730;23;20021;-62
2022/04/15 16:08:21;;;;;;;13.27;5.68;;;;;;;;;;6152424;23;20008;-60
2022/04/15 16:10:47;;;;;;;10.23;4.95;;;;;;;;;;6152942;23;20037;-58
2022/04/15 16:13:13;;;;;;;12.38;4.47;;;;;;;;;;6151881;23;20012;-58
2022/04/15 16:15:39;;;;;;;11.38;5.35;;;;;;;;;;6152627;23;20002;-59
2022/04/15 16:18:06;;;;;;;16.13;10.30;;;;;;;;;;6152252;23;20005;-58
2022/04/15 16:20:32;;;;;;;7.90;3.70;;;;;;;;;;6152582;23;20194;-59
2022/04/15 16:22:58;;;;;;;28.10;17.73;;;;;;;;;;6151942;23;20037;-59
2022/04/15 16:25:24;;;;;;;11.55;5.28;;;;;;;;;;6152277;23;20009;-59
2022/04/15 16:27:50;;;;;;;10.88;4.95;;;;;;;;;;6152950;23;20002;-59
2022/04/15 16:30:16;;;;;;;7.53;3.50;;;;;;;;;;6152360;23;20048;-61
2022/04/15 16:32:43;;;;;;;13.60;6.57;;;;;;;;;;6152936;23;19998;-62
2022/04/15 16:35:10;;;;;;;17.63;6.15;;;;;;;;;;6152907;23;20033;-59
2022/04/15 16:37:36;;;;;;;17.40;8.10;;;;;;;;;;6152701;23;19997;-62
2022/04/15 16:40:02;;;;;;;10.38;4.72;;;;;;;;;;6152253;23;20006;-66
2022/04/15 16:42:28;;;;;;;13.77;4.63;;;;;;;;;;6125069;23;20045;-58
2022/04/15 16:44:54;;;;;;;10.52;4.45;;;;;;;;;;6152425;23;20010;-62
2022/04/15 16:47:20;;;;;;;12.32;6.18;;;;;;;;;;6152675;23;19998;-61
2022/04/15 16:49:46;;;;;;;11.40;4.53;;;;;;;;;;6151608;23;20060;-59
2022/04/15 16:52:12;;;;;;;7.72;3.45;;;;;;;;;;6151937;23;20006;-62
2022/04/15 17:00:09;;;;;;;10.35;5.18;;;;;;;;;;6152177;23;20024;-62
2022/04/15 17:02:36;;;;;;;12.48;4.40;;;;;;;;;;6152580;23;20006;-61
2022/04/15 17:05:03;;;;;;;18.60;6.72;;;;;;;;;;6152021;23;20017;-62
2022/04/15 17:07:29;;;;;;;17.15;7.60;;;;;;;;;;6152470;23;20049;-62
2022/04/15 17:09:55;;;;;;;11.10;4.85;;;;;;;;;;6152430;23;20016;-62
2022/04/15 17:12:21;;;;;;;9.77;5.45;;;;;;;;;;6152247;23;20426;-63
2022/04/15 17:14:47;;;;;;;9.25;4.50;;;;;;;;;;6152229;23;20012;-62
2022/04/15 17:17:13;;;;;;;12.82;6.05;;;;;;;;;;6151732;23;20017;-62
2022/04/15 17:19:39;;;;;;;14.55;6.47;;;;;;;;;;6151733;23;20005;-62
2022/04/15 17:22:05;;;;;;;14.70;7.70;;;;;;;;;;6152069;23;20120;-62
2022/04/15 17:24:31;;;;;;;15.38;8.20;;;;;;;;;;6152017;23;20426;-62
2022/04/15 17:26:58;;;;;;;8.43;4.90;;;;;;;;;;6152870;23;20517;-60
2022/04/15 17:29:26;;;;;;;12.30;5.35;;;;;;;;;;6152213;23;20089;-62
2022/04/15 17:31:52;;;;;;;12.55;5.82;;;;;;;;;;6152871;23;20009;-61
2022/04/15 17:34:18;;;;;;;11.23;5.00;;;;;;;;;;6152232;23;20009;-61
2022/04/15 17:36:44;;;;;;;12.88;5.50;;;;;;;;;;6152672;23;19997;-62
2022/04/15 17:39:11;;;;;;;10.30;4.68;;;;;;;;;;6152861;23;20010;-63
2022/04/15 17:41:37;;;;;;;8.48;3.35;;;;;;;;;;6152563;23;20352;-62
2022/04/15 17:44:03;;;;;;;8.52;4.93;;;;;;;;;;6152704;23;20005;-61
2022/04/15 17:46:31;;;;;;;11.30;5.50;;;;;;;;;;6152838;23;20009;-61
2022/04/15 17:48:57;;;;;;;12.13;5.50;;;;;;;;;;6152280;23;20084;-60
2022/04/15 17:51:23;;;;;;;15.85;7.43;;;;;;;;;;6152868;23;20373;-62
2022/04/15 17:53:49;;;;;;;14.75;6.72;;;;;;;;;;6152867;23;20001;-62
2022/04/15 17:56:17;;;;;;;15.82;5.45;;;;;;;;;;6152921;23;20013;-63
2022/04/15 17:58:43;;;;;;;22.27;6.55;;;;;;;;;;6152799;23;20014;-62
2022/04/15 18:01:09;;;;;;;20.13;6.70;;;;;;;;;;6152444;23;20068;-62
2022/04/15 18:03:35;;;;;;;21.02;8.00;;;;;;;;;;6152255;23;20094;-62
2022/04/15 18:06:01;;;;;;;17.33;5.03;;;;;;;;;;6152588;23;20013;-62
2022/04/15 18:08:27;;;;;;;14.73;5.50;;;;;;;;;;6152832;23;20001;-67
2022/04/15 18:10:53;;;;;;;23.17;6.60;;;;;;;;;;6151711;23;20125;-61
2022/04/15 18:13:19;;;;;;;15.85;6.57;;;;;;;;;;6154653;23;20025;-61
2022/04/15 18:15:46;;;;;;;16.80;6.05;;;;;;;;;;6154249;23;20013;-61
2022/04/15 18:18:12;;;;;;;19.52;6.75;;;;;;;;;;6153787;23;20033;-61
2022/04/15 18:20:38;;;;;;;15.80;5.90;;;;;;;;;;6153255;23;20010;-61
2022/04/15 18:23:07;;;;;;;15.95;5.80;;;;;;;;;;6153418;23;20100;-61
2022/04/15 18:25:37;;;;;;;15.50;6.32;;;;;;;;;;6153559;23;20024;-61
2022/04/15 18:28:04;;;;;;;15.05;5.72;;;;;;;;;;6153847;23;20005;-60
2022/04/15 18:30:30;;;;;;;15.90;5.93;;;;;;;;;;6153954;23;20418;-62
2022/04/15 18:32:56;;;;;;;19.52;6.65;;;;;;;;;;6154213;23;20121;-61
2022/04/15 18:35:24;;;;;;;13.52;5.55;;;;;;;;;;6153714;23;20001;-62
2022/04/15 18:37:50;;;;;;;17.52;6.30;;;;;;;;;;6153940;23;20006;-61
2022/04/15 18:40:16;;;;;;;15.13;5.97;;;;;;;;;;6153597;23;20008;-61
2022/04/15 18:42:42;;;;;;;20.52;6.50;;;;;;;;;;6154333;23;20016;-62
2022/04/15 18:45:09;;;;;;;16.80;6.18;;;;;;;;;;6153905;23;20438;-61
2022/04/15 18:47:35;;;;;;;19.08;7.22;;;;;;;;;;6153803;23;20009;-60
2022/04/15 18:52:46;;;;;;;14.75;6.90;;;;;;;;;;6154734;23;20511;-60
2022/04/15 18:55:18;;;;;;;15.38;6.45;;;;;;;;;;6154103;23;20006;-61
2022/04/15 18:57:45;;;;;;;14.18;6.18;;;;;;;;;;6153914;23;20016;-61
2022/04/15 19:00:12;;;;;;;16.20;6.72;;;;;;;;;;6153650;23;20037;-61
2022/04/15 19:02:39;;;;;;;12.32;6.20;;;;;;;;;;6154086;23;20001;-60
2022/04/15 19:05:06;;;;;;;18.67;5.85;;;;;;;;;;6153685;23;20013;-59
2022/04/15 19:07:33;;;;;;;18.75;6.57;;;;;;;;;;6154113;23;20076;-60
2022/04/15 19:09:59;;;;;;;16.85;6.55;;;;;;;;;;6154109;23;20008;-60
2022/04/15 19:12:25;;;;;;;22.20;7.65;;;;;;;;;;6153622;23;20013;-59
2022/04/15 19:14:51;;;;;;;32.10;12.10;;;;;;;;;;6153771;23;20103;-61
2022/04/15 19:17:17;;;;;;;27.67;11.80;;;;;;;;;;6153768;23;20004;-60
2022/04/15 19:19:46;;;;;;;15.52;6.95;;;;;;;;;;6153191;23;20053;-60
2022/04/15 19:22:13;;;;;;;35.72;14.40;;;;;;;;;;6152873;23;20028;-62
2022/04/15 19:24:41;;;;;;;20.85;9.25;;;;;;;;;;6153374;23;20068;-60
2022/04/15 19:27:07;;;;;;;18.52;8.20;;;;;;;;;;6153436;23;20088;-62
2022/04/15 19:29:34;;;;;;;18.15;7.47;;;;;;;;;;6152745;23;19998;-61
2022/04/15 19:32:00;;;;;;;21.25;7.78;;;;;;;;;;6149218;23;20126;-61
2022/04/15 19:34:26;;;;;;;17.08;6.90;;;;;;;;;;6153072;23;20005;-61
2022/04/15 19:36:53;;;;;;;16.23;6.60;;;;;;;;;;6153087;23;20013;-61
2022/04/15 19:39:19;;;;;;;18.40;5.97;;;;;;;;;;6153135;23;20002;-63
2022/04/15 19:41:45;;;;;;;18.58;7.28;;;;;;;;;;6152459;23;20017;-63
2022/04/15 19:44:11;;;;;;;15.40;7.53;;;;;;;;;;6152456;23;20461;-63
2022/04/15 19:46:38;;;;;;;15.20;6.22;;;;;;;;;;6152906;23;20084;-62
2022/04/15 19:49:06;;;;;;;19.05;7.57;;;;;;;;;;6152849;23;20005;-62
2022/04/15 19:51:33;;;;;;;16.02;6.45;;;;;;;;;;6153078;23;20017;-64
2022/04/15 19:53:59;;;;;;;13.55;5.75;;;;;;;;;;6153359;23;20080;-62
2022/04/15 20:01:54;;;;;;;14.65;6.72;;;;;;;;;;6151503;23;20337;-62
2022/04/15 20:04:20;;;;;;;15.40;6.38;;;;;;;;;;6152152;23;20422;-62
2022/04/15 22:41:21;;;;;;;14.45;5.53;;;;;;;;;;5109157;27;20430;-74
2022/04/15 22:43:47;;;;;;;12.18;4.25;;;;;;;;;;5109488;28;20040;-73
